createdAt,value
2018-08-17T00:00:09.723Z,1015.59
2018-08-17T00:01:31.433Z,1015.51
2018-08-17T00:02:32.355Z,1015.52
2018-08-17T00:03:32.007Z,1015.53
2018-08-17T00:04:32.744Z,1015.53
2018-08-17T00:05:32.269Z,1015.48
2018-08-17T00:06:31.821Z,1015.47
2018-08-17T00:07:32.318Z,1015.49
2018-08-17T00:08:31.947Z,1015.52
2018-08-17T00:09:32.607Z,1015.50
2018-08-17T00:10:32.233Z,1015.52
2018-08-17T00:11:31.831Z,1015.50
2018-08-17T00:12:53.218Z,1015.49
2018-08-17T00:13:53.781Z,1015.47
2018-08-17T00:15:14.580Z,1015.45
2018-08-17T00:16:15.393Z,1015.48
2018-08-17T00:17:36.019Z,1015.47
2018-08-17T00:18:36.470Z,1015.47
2018-08-17T00:19:58.492Z,1015.47
2018-08-17T00:20:58.978Z,1015.46
2018-08-17T00:21:58.470Z,1015.44
2018-08-17T00:22:59.252Z,1015.48
2018-08-17T00:24:20.487Z,1015.35
2018-08-17T00:25:42.447Z,1015.45
2018-08-17T00:26:43.252Z,1015.47
2018-08-17T00:27:42.599Z,1015.42
2018-08-17T00:28:43.381Z,1015.40
2018-08-17T00:29:42.834Z,1015.41
2018-08-17T00:30:42.643Z,1015.38
2018-08-17T00:31:42.378Z,1015.43
2018-08-17T00:32:42.946Z,1015.42
2018-08-17T00:33:42.466Z,1015.40
2018-08-17T00:34:43.251Z,1015.40
2018-08-17T00:35:42.947Z,1015.40
2018-08-17T00:36:42.744Z,1015.39
2018-08-17T00:37:43.132Z,1015.40
2018-08-17T00:38:42.886Z,1015.36
2018-08-17T00:39:42.448Z,1015.36
2018-08-17T00:40:43.313Z,1015.36
2018-08-17T00:41:43.055Z,1015.37
2018-08-17T00:42:42.793Z,1015.32
2018-08-17T00:43:43.216Z,1015.31
2018-08-17T00:44:42.581Z,1015.33
2018-08-17T00:45:43.368Z,1015.35
2018-08-17T00:47:04.147Z,1015.35
2018-08-17T00:48:04.911Z,1015.32
2018-08-17T00:49:04.626Z,1015.37
2018-08-17T00:50:05.467Z,1015.39
2018-08-17T00:51:26.543Z,1015.41
2018-08-17T00:52:27.322Z,1015.43
2018-08-17T00:53:27.204Z,1015.46
2018-08-17T00:54:26.750Z,1015.42
2018-08-17T00:55:27.287Z,1015.45
2018-08-17T00:56:48.205Z,1015.46
2018-08-17T00:57:49.057Z,1015.46
2018-08-17T00:58:48.804Z,1015.47
2018-08-17T00:59:48.393Z,1015.51
2018-08-17T01:00:48.925Z,1015.49
2018-08-17T01:01:48.670Z,1015.49
2018-08-17T01:02:49.410Z,1015.47
2018-08-17T01:03:49.135Z,1015.47
2018-08-17T01:04:48.752Z,1015.47
2018-08-17T01:05:48.353Z,1015.47
2018-08-17T01:07:31.544Z,1015.51
2018-08-17T01:08:31.855Z,1015.49
2018-08-17T01:09:32.756Z,1015.50
2018-08-17T01:10:32.273Z,1015.47
2018-08-17T01:11:53.705Z,1015.51
2018-08-17T01:12:54.425Z,1015.52
2018-08-17T01:13:53.984Z,1015.54
2018-08-17T01:14:53.541Z,1015.52
2018-08-17T01:16:15.944Z,1015.53
2018-08-17T01:17:16.707Z,1015.52
2018-08-17T01:18:37.879Z,1015.54
2018-08-17T01:19:38.549Z,1015.53
2018-08-17T01:20:38.332Z,1015.53
2018-08-17T01:21:37.878Z,1015.53
2018-08-17T01:22:38.666Z,1015.57
2018-08-17T01:23:38.142Z,1015.54
2018-08-17T01:24:38.111Z,1015.58
2018-08-17T01:25:37.677Z,1015.55
2018-08-17T01:26:38.413Z,1015.53
2018-08-17T01:27:37.950Z,1015.56
2018-08-17T01:28:38.383Z,1015.56
2018-08-17T01:29:37.855Z,1015.57
2018-08-17T01:30:38.164Z,1015.59
2018-08-17T01:31:37.677Z,1015.58
2018-08-17T01:32:38.475Z,1015.63
2018-08-17T01:33:59.613Z,1015.59
2018-08-17T01:35:00.263Z,1015.60
2018-08-17T01:35:59.840Z,1015.60
2018-08-17T01:37:00.421Z,1015.60
2018-08-17T01:38:21.012Z,1015.60
2018-08-17T01:39:21.994Z,1015.61
2018-08-17T01:40:21.553Z,1015.64
2018-08-17T01:41:21.020Z,1015.67
2018-08-17T01:42:42.621Z,1015.67
2018-08-17T01:43:43.133Z,1015.70
2018-08-17T01:44:43.454Z,1015.69
2018-08-17T01:46:04.162Z,1015.68
2018-08-17T01:47:04.620Z,1015.73
2018-08-17T01:48:04.407Z,1015.72
2018-08-17T01:49:26.168Z,1015.72
2018-08-17T01:50:26.848Z,1015.76
2018-08-17T01:51:26.781Z,1015.74
2018-08-17T01:52:26.666Z,1015.74
2018-08-17T01:53:27.205Z,1015.76
2018-08-17T01:54:26.834Z,1015.77
2018-08-17T01:55:26.310Z,1015.76
2018-08-17T01:56:26.778Z,1015.80
2018-08-17T01:57:27.249Z,1015.86
2018-08-17T01:58:27.017Z,1015.85
2018-08-17T01:59:26.878Z,1015.88
2018-08-17T02:00:26.477Z,1015.90
2018-08-17T02:01:26.913Z,1015.91
2018-08-17T02:02:26.383Z,1015.93
2018-08-17T02:03:26.877Z,1015.95
2018-08-17T02:04:26.576Z,1015.93
2018-08-17T02:05:26.634Z,1016.00
2018-08-17T02:06:27.471Z,1015.99
2018-08-17T02:07:27.030Z,1015.98
2018-08-17T02:08:26.633Z,1016.07
2018-08-17T02:09:27.127Z,1016.06
2018-08-17T02:10:26.837Z,1016.07
2018-08-17T02:11:26.663Z,1016.13
2018-08-17T02:12:27.174Z,1016.14
2018-08-17T02:13:26.938Z,1016.18
2018-08-17T02:14:26.762Z,1016.16
2018-08-17T02:15:26.834Z,1016.22
2018-08-17T02:16:26.550Z,1016.24
2018-08-17T02:17:27.242Z,1016.25
2018-08-17T02:18:26.718Z,1016.24
2018-08-17T02:19:26.328Z,1016.29
2018-08-17T02:20:27.053Z,1016.29
2018-08-17T02:21:26.686Z,1016.32
2018-08-17T02:22:26.525Z,1016.31
2018-08-17T02:23:27.256Z,1016.34
2018-08-17T02:24:27.033Z,1016.34
2018-08-17T02:25:26.844Z,1016.33
2018-08-17T02:26:26.379Z,1016.36
2018-08-17T02:27:48.776Z,1016.35
2018-08-17T02:28:49.385Z,1016.35
2018-08-17T02:29:48.781Z,1016.36
2018-08-17T02:31:11.052Z,1016.38
2018-08-17T02:32:33.116Z,1016.40
2018-08-17T02:33:54.519Z,1016.37
2018-08-17T02:34:55.453Z,1016.39
2018-08-17T02:35:54.926Z,1016.38
2018-08-17T02:36:54.556Z,1016.37
2018-08-17T02:37:55.469Z,1016.39
2018-08-17T02:38:55.168Z,1016.41
2018-08-17T02:39:54.949Z,1016.39
2018-08-17T02:40:54.499Z,1016.41
2018-08-17T02:41:55.114Z,1016.42
2018-08-17T02:42:54.603Z,1016.45
2018-08-17T02:43:55.371Z,1016.45
2018-08-17T02:45:16.636Z,1016.45
2018-08-17T02:46:16.355Z,1016.43
2018-08-17T02:47:17.127Z,1016.45
2018-08-17T02:48:16.811Z,1016.46
2018-08-17T02:49:16.661Z,1016.50
2018-08-17T02:50:16.611Z,1016.49
2018-08-17T02:51:16.542Z,1016.49
2018-08-17T02:52:17.381Z,1016.48
2018-08-17T02:53:17.135Z,1016.49
2018-08-17T02:54:38.413Z,1016.51
2018-08-17T02:55:39.256Z,1016.54
2018-08-17T02:56:39.051Z,1016.55
2018-08-17T02:57:38.959Z,1016.59
2018-08-17T02:58:38.544Z,1016.58
2018-08-17T02:59:40.251Z,1016.61
2018-08-17T03:00:38.849Z,1016.60
2018-08-17T03:01:39.287Z,1016.58
2018-08-17T03:02:38.892Z,1016.62
2018-08-17T03:03:39.178Z,1016.62
2018-08-17T03:04:38.900Z,1016.56
2018-08-17T03:05:38.575Z,1016.61
2018-08-17T03:06:39.410Z,1016.65
2018-08-17T03:08:00.341Z,1016.65
2018-08-17T03:09:01.861Z,1016.68
2018-08-17T03:10:00.524Z,1016.69
2018-08-17T03:11:01.099Z,1016.68
2018-08-17T03:12:21.924Z,1016.70
2018-08-17T03:13:22.705Z,1016.65
2018-08-17T03:14:22.307Z,1016.64
2018-08-17T03:15:22.922Z,1016.58
2018-08-17T03:16:22.465Z,1016.60
2018-08-17T03:17:22.847Z,1016.61
2018-08-17T03:18:43.965Z,1016.63
2018-08-17T03:19:44.381Z,1016.64
2018-08-17T03:20:45.060Z,1016.68
2018-08-17T03:21:44.652Z,1016.67
2018-08-17T03:22:44.140Z,1016.72
2018-08-17T03:23:44.686Z,1016.74
2018-08-17T03:24:44.276Z,1016.72
2018-08-17T03:25:45.003Z,1016.74
2018-08-17T03:26:44.729Z,1016.73
2018-08-17T03:27:44.440Z,1016.77
2018-08-17T03:28:44.230Z,1016.78
2018-08-17T03:29:45.009Z,1016.81
2018-08-17T03:30:44.805Z,1016.83
2018-08-17T03:31:44.515Z,1016.88
2018-08-17T03:32:44.078Z,1016.90
2018-08-17T03:33:44.948Z,1016.93
2018-08-17T03:35:27.203Z,1016.95
2018-08-17T03:36:27.530Z,1016.94
2018-08-17T03:37:27.157Z,1016.98
2018-08-17T03:38:27.618Z,1016.97
2018-08-17T03:39:27.104Z,1016.93
2018-08-17T03:40:27.859Z,1016.93
2018-08-17T03:41:27.709Z,1016.91
2018-08-17T03:42:27.361Z,1016.93
2018-08-17T03:43:28.050Z,1016.90
2018-08-17T03:44:27.475Z,1016.93
2018-08-17T03:45:27.892Z,1016.95
2018-08-17T03:46:27.422Z,1016.91
2018-08-17T03:47:27.970Z,1016.90
2018-08-17T03:49:10.545Z,1016.91
2018-08-17T03:50:11.050Z,1016.88
2018-08-17T03:51:11.509Z,1016.86
2018-08-17T03:52:11.315Z,1016.84
2018-08-17T03:53:11.151Z,1016.83
2018-08-17T03:54:32.037Z,1016.79
2018-08-17T03:55:32.366Z,1016.80
2018-08-17T03:56:32.236Z,1016.81
2018-08-17T03:57:31.805Z,1016.82
2018-08-17T03:58:32.702Z,1016.85
2018-08-17T03:59:53.554Z,1016.84
2018-08-17T04:00:54.284Z,1016.85
2018-08-17T04:01:53.682Z,1016.86
2018-08-17T04:02:54.195Z,1016.81
2018-08-17T04:03:53.734Z,1016.86
2018-08-17T04:04:54.674Z,1016.83
2018-08-17T04:05:54.205Z,1016.80
2018-08-17T04:06:53.793Z,1016.80
2018-08-17T04:07:54.414Z,1016.83
2018-08-17T04:08:54.495Z,1016.85
2018-08-17T04:10:37.219Z,1016.82
2018-08-17T04:11:37.956Z,1016.81
2018-08-17T04:12:59.362Z,1016.82
2018-08-17T04:14:00.912Z,1016.81
2018-08-17T04:14:59.377Z,1016.84
2018-08-17T04:16:22.837Z,1016.87
2018-08-17T04:17:22.604Z,1016.86
2018-08-17T04:18:22.384Z,1016.88
2018-08-17T04:19:22.071Z,1016.89
2018-08-17T04:20:22.645Z,1016.85
2018-08-17T04:21:22.419Z,1016.81
2018-08-17T04:22:22.365Z,1016.79
2018-08-17T04:23:21.889Z,1016.79
2018-08-17T04:24:43.964Z,1016.86
2018-08-17T04:25:44.493Z,1016.83
2018-08-17T04:26:44.609Z,1016.88
2018-08-17T04:27:44.826Z,1016.82
2018-08-17T04:28:44.492Z,1016.80
2018-08-17T04:29:44.569Z,1016.76
2018-08-17T04:31:06.286Z,1016.81
2018-08-17T04:32:07.019Z,1016.79
2018-08-17T04:33:06.655Z,1016.77
2018-08-17T04:34:06.553Z,1016.83
2018-08-17T04:35:06.775Z,1016.82
2018-08-17T04:36:06.724Z,1016.83
2018-08-17T04:37:06.604Z,1016.82
2018-08-17T04:38:06.480Z,1016.84
2018-08-17T04:39:06.347Z,1016.82
2018-08-17T04:40:06.228Z,1016.88
2018-08-17T04:41:07.300Z,1016.90
2018-08-17T04:42:06.022Z,1016.93
2018-08-17T04:43:06.666Z,1016.96
2018-08-17T04:44:06.394Z,1016.97
2018-08-17T04:45:07.552Z,1016.97
2018-08-17T04:46:07.718Z,1017.02
2018-08-17T04:47:06.698Z,1017.00
2018-08-17T04:48:06.663Z,1017.01
2018-08-17T04:49:27.864Z,1017.06
2018-08-17T04:50:28.562Z,1017.11
2018-08-17T04:51:29.069Z,1017.10
2018-08-17T04:52:29.639Z,1017.10
2018-08-17T04:53:30.221Z,1017.09
2018-08-17T04:54:40.826Z,1017.06
2018-08-17T04:55:28.592Z,1017.05
2018-08-17T04:56:28.615Z,1017.03
2018-08-17T04:57:28.283Z,1017.08
2018-08-17T04:58:28.367Z,1017.02
2018-08-17T04:59:28.038Z,1017.02
2018-08-17T05:00:28.706Z,1016.98
2018-08-17T05:01:50.040Z,1016.99
2018-08-17T05:02:50.536Z,1016.97
2018-08-17T05:03:50.116Z,1017.07
2018-08-17T05:04:50.775Z,1017.16
2018-08-17T05:05:50.341Z,1017.28
2018-08-17T05:06:50.390Z,1017.33
2018-08-17T05:07:50.444Z,1017.38
2018-08-17T05:09:12.797Z,1017.38
2018-08-17T05:10:35.815Z,1017.37
2018-08-17T05:11:37.110Z,1017.43
2018-08-17T05:12:41.683Z,1017.47
2018-08-17T05:13:36.457Z,1017.47
2018-08-17T05:14:57.624Z,1017.44
2018-08-17T05:15:59.017Z,1017.44
2018-08-17T05:16:58.608Z,1017.44
2018-08-17T05:18:19.640Z,1017.46
2018-08-17T05:19:20.584Z,1017.55
2018-08-17T05:20:20.682Z,1017.58
2018-08-17T05:21:20.484Z,1017.62
2018-08-17T05:22:41.685Z,1017.65
2018-08-17T05:23:42.825Z,1017.69
2018-08-17T05:24:42.562Z,1017.70
2018-08-17T05:25:42.295Z,1017.64
2018-08-17T05:26:42.366Z,1017.60
2018-08-17T05:27:42.012Z,1017.49
2018-08-17T05:29:03.348Z,1017.28
2018-08-17T05:30:25.704Z,1017.17
2018-08-17T05:31:25.357Z,1017.08
2018-08-17T05:32:26.620Z,1017.12
2018-08-17T05:33:26.493Z,1017.11
2018-08-17T05:34:26.068Z,1017.22
2018-08-17T05:35:25.852Z,1017.30
2018-08-17T05:37:08.982Z,1017.35
2018-08-17T05:38:31.463Z,1017.35
2018-08-17T05:39:31.542Z,1017.25
2018-08-17T05:40:32.130Z,1017.23
2018-08-17T05:42:15.649Z,1017.15
2018-08-17T05:43:16.293Z,1017.14
2018-08-17T05:44:16.280Z,1017.21
2018-08-17T05:45:16.474Z,1017.19
2018-08-17T05:46:38.810Z,1017.22
2018-08-17T05:47:38.626Z,1017.24
2018-08-17T05:48:38.559Z,1017.25
2018-08-17T05:49:39.779Z,1017.19
2018-08-17T05:50:39.007Z,1017.22
2018-08-17T05:51:39.169Z,1017.19
2018-08-17T05:53:01.441Z,1017.15
2018-08-17T05:54:01.710Z,1017.12
2018-08-17T05:55:01.290Z,1017.09
2018-08-17T05:56:01.029Z,1017.08
2018-08-17T05:57:01.074Z,1017.07
2018-08-17T05:58:01.015Z,1017.10
2018-08-17T05:59:01.017Z,1017.09
2018-08-17T06:00:22.367Z,1017.10
2018-08-17T06:01:44.814Z,1017.10
2018-08-17T06:03:07.473Z,1017.13
2018-08-17T06:04:08.114Z,1017.11
2018-08-17T06:05:07.954Z,1017.10
2018-08-17T06:06:07.671Z,1017.11
2018-08-17T06:07:07.485Z,1017.12
2018-08-17T06:08:29.314Z,1017.07
2018-08-17T06:09:29.193Z,1017.06
2018-08-17T06:10:30.045Z,1017.07
2018-08-17T06:11:29.813Z,1017.08
2018-08-17T06:12:30.040Z,1017.08
2018-08-17T06:13:29.922Z,1017.09
2018-08-17T06:14:29.648Z,1017.10
2018-08-17T06:15:29.450Z,1017.09
2018-08-17T06:16:29.243Z,1017.12
2018-08-17T06:17:29.042Z,1017.13
2018-08-17T06:18:29.808Z,1017.17
2018-08-17T06:19:29.739Z,1017.16
2018-08-17T06:20:29.499Z,1017.19
2018-08-17T06:21:29.266Z,1017.25
2018-08-17T06:22:29.568Z,1017.28
2018-08-17T06:23:30.513Z,1017.27
2018-08-17T06:24:30.065Z,1017.29
2018-08-17T06:25:29.870Z,1017.30
2018-08-17T06:26:30.077Z,1017.29
2018-08-17T06:27:30.436Z,1017.27
2018-08-17T06:28:29.214Z,1017.30
2018-08-17T06:29:34.671Z,1017.32
2018-08-17T06:30:32.009Z,1017.32
2018-08-17T06:31:30.071Z,1017.35
2018-08-17T06:32:31.005Z,1017.32
2018-08-17T06:33:29.550Z,1017.36
2018-08-17T06:34:29.987Z,1017.36
2018-08-17T06:35:29.575Z,1017.33
2018-08-17T06:36:29.650Z,1017.34
2018-08-17T06:37:30.133Z,1017.37
2018-08-17T06:39:36.251Z,1017.38
2018-08-17T06:40:38.020Z,1017.39
2018-08-17T06:41:37.976Z,1017.41
2018-08-17T06:43:04.889Z,1017.44
2018-08-17T06:44:02.230Z,1017.45
2018-08-17T06:45:01.175Z,1017.48
2018-08-17T06:46:01.931Z,1017.49
2018-08-17T06:47:25.832Z,1017.46
2018-08-17T06:48:50.838Z,1017.45
2018-08-17T06:49:51.154Z,1017.46
2018-08-17T06:50:50.479Z,1017.43
2018-08-17T06:51:52.880Z,1017.50
2018-08-17T06:52:51.030Z,1017.53
2018-08-17T06:53:49.869Z,1017.53
2018-08-17T06:54:50.074Z,1017.52
2018-08-17T06:55:50.098Z,1017.55
2018-08-17T06:56:50.198Z,1017.55
2018-08-17T06:57:52.385Z,1017.54
2018-08-17T06:58:50.585Z,1017.56
2018-08-17T06:59:49.682Z,1017.59
2018-08-17T07:00:53.055Z,1017.57
2018-08-17T07:01:51.930Z,1017.54
2018-08-17T07:02:50.273Z,1017.56
2018-08-17T07:03:49.573Z,1017.57
2018-08-17T07:04:49.954Z,1017.56
2018-08-17T07:05:52.081Z,1017.63
2018-08-17T07:06:50.228Z,1017.64
2018-08-17T07:07:49.342Z,1017.62
2018-08-17T07:08:50.298Z,1017.65
2018-08-17T07:09:49.754Z,1017.71
2018-08-17T07:10:51.511Z,1017.74
2018-08-17T07:11:51.213Z,1017.82
2018-08-17T07:13:11.766Z,1017.86
2018-08-17T07:14:12.617Z,1017.90
2018-08-17T07:15:12.701Z,1017.92
2018-08-17T07:16:12.815Z,1017.95
2018-08-17T07:17:12.972Z,1017.95
2018-08-17T07:18:35.685Z,1017.99
2018-08-17T07:19:38.340Z,1018.06
2018-08-17T07:20:35.320Z,1018.09
2018-08-17T07:21:35.409Z,1018.11
2018-08-17T07:23:45.985Z,1018.10
2018-08-17T07:24:46.696Z,1018.10
2018-08-17T07:25:44.665Z,1018.11
2018-08-17T07:27:28.000Z,1018.10
2018-08-17T07:28:30.046Z,1018.09
2018-08-17T07:29:29.013Z,1018.18
2018-08-17T07:30:28.658Z,1018.28
2018-08-17T07:31:28.426Z,1018.32
2018-08-17T07:32:28.616Z,1018.39
2018-08-17T07:33:28.690Z,1018.41
2018-08-17T07:34:28.390Z,1018.42
2018-08-17T07:35:28.427Z,1018.42
2018-08-17T07:36:28.503Z,1018.44
2018-08-17T07:38:11.892Z,1018.44
2018-08-17T07:39:13.018Z,1018.45
2018-08-17T07:40:11.822Z,1018.47
2018-08-17T07:41:12.738Z,1018.47
2018-08-17T07:42:12.774Z,1018.46
2018-08-17T07:43:12.758Z,1018.28
2018-08-17T07:44:13.009Z,1018.47
2018-08-17T07:45:11.803Z,1018.47
2018-08-17T07:46:12.860Z,1018.51
2018-08-17T07:47:12.854Z,1018.49
2018-08-17T07:48:12.288Z,1018.55
2018-08-17T07:49:35.449Z,1018.54
2018-08-17T07:50:35.614Z,1018.59
2018-08-17T07:51:35.596Z,1018.62
2018-08-17T07:52:35.710Z,1018.64
2018-08-17T07:53:35.525Z,1018.67
2018-08-17T07:54:35.871Z,1018.65
2018-08-17T07:55:35.929Z,1018.64
2018-08-17T07:56:35.716Z,1018.63
2018-08-17T07:57:35.522Z,1018.62
2018-08-17T07:58:35.290Z,1018.60
2018-08-17T07:59:35.207Z,1018.59
2018-08-17T08:00:35.243Z,1018.56
2018-08-17T08:01:37.489Z,1018.55
2018-08-17T08:02:35.437Z,1018.54
2018-08-17T08:03:35.155Z,1018.48
2018-08-17T08:04:35.290Z,1018.49
2018-08-17T08:06:19.000Z,1018.54
2018-08-17T08:07:19.145Z,1018.58
2018-08-17T08:08:18.967Z,1018.55
2018-08-17T08:09:19.309Z,1018.53
2018-08-17T08:10:40.760Z,1018.57
2018-08-17T08:11:41.903Z,1018.54
2018-08-17T08:13:02.661Z,1018.60
2018-08-17T08:14:02.792Z,1018.59
2018-08-17T08:15:28.735Z,1018.60
2018-08-17T08:16:29.027Z,1018.57
2018-08-17T08:17:29.016Z,1018.64
2018-08-17T08:18:29.125Z,1018.64
2018-08-17T08:19:29.263Z,1018.63
2018-08-17T08:20:29.276Z,1018.71
2018-08-17T08:21:29.890Z,1018.78
2018-08-17T08:22:28.849Z,1018.78
2018-08-17T08:23:28.849Z,1018.78
2018-08-17T08:24:28.595Z,1018.78
2018-08-17T08:25:28.817Z,1018.75
2018-08-17T08:26:28.757Z,1018.74
2018-08-17T08:27:50.949Z,1018.73
2018-08-17T08:29:12.810Z,1018.74
2018-08-17T08:30:12.814Z,1018.75
2018-08-17T08:31:12.895Z,1018.75
2018-08-17T08:32:34.679Z,1018.72
2018-08-17T08:33:35.104Z,1018.69
2018-08-17T08:34:34.993Z,1018.65
2018-08-17T08:35:34.716Z,1018.62
2018-08-17T08:36:34.634Z,1018.62
2018-08-17T08:37:34.896Z,1018.62
2018-08-17T08:38:34.798Z,1018.65
2018-08-17T08:39:35.129Z,1018.65
2018-08-17T08:40:35.692Z,1018.62
2018-08-17T08:41:56.695Z,1018.69
2018-08-17T08:42:56.936Z,1018.68
2018-08-17T08:43:57.356Z,1018.67
2018-08-17T08:45:18.947Z,1018.67
2018-08-17T08:46:20.225Z,1018.65
2018-08-17T08:47:19.902Z,1018.69
2018-08-17T08:48:19.960Z,1018.73
2018-08-17T08:49:19.948Z,1018.70
2018-08-17T08:50:19.745Z,1018.73
2018-08-17T08:51:19.326Z,1018.70
2018-08-17T08:52:41.234Z,1018.62
2018-08-17T08:53:41.209Z,1018.68
2018-08-17T08:54:41.367Z,1018.74
2018-08-17T08:55:41.103Z,1018.74
2018-08-17T08:56:41.292Z,1018.77
2018-08-17T08:57:48.204Z,1018.79
2018-08-17T08:58:50.330Z,1018.78
2018-08-17T08:59:47.124Z,1018.77
2018-08-17T09:00:41.184Z,1018.85
2018-08-17T09:01:41.154Z,1018.89
2018-08-17T09:02:41.124Z,1018.91
2018-08-17T09:03:43.051Z,1018.87
2018-08-17T09:04:41.358Z,1018.89
2018-08-17T09:05:41.327Z,1018.86
2018-08-17T09:06:41.514Z,1018.84
2018-08-17T09:08:05.871Z,1018.85
2018-08-17T09:09:29.522Z,1018.87
2018-08-17T09:10:30.316Z,1018.85
2018-08-17T09:11:31.431Z,1018.84
2018-08-17T09:12:30.330Z,1018.86
2018-08-17T09:13:32.348Z,1018.86
2018-08-17T09:14:30.650Z,1018.91
2018-08-17T09:15:29.670Z,1018.97
2018-08-17T09:16:29.965Z,1018.97
2018-08-17T09:17:30.328Z,1018.98
2018-08-17T09:18:30.124Z,1018.94
2018-08-17T09:19:30.019Z,1018.91
2018-08-17T09:20:30.113Z,1018.89
2018-08-17T09:21:51.381Z,1018.91
2018-08-17T09:22:53.515Z,1018.91
2018-08-17T09:23:52.509Z,1018.90
2018-08-17T09:25:15.076Z,1018.96
2018-08-17T09:26:58.700Z,1019.01
2018-08-17T09:27:59.767Z,1018.99
2018-08-17T09:28:58.718Z,1018.99
2018-08-17T09:29:58.790Z,1018.96
2018-08-17T09:30:58.748Z,1018.95
2018-08-17T09:31:58.822Z,1018.94
2018-08-17T09:32:58.786Z,1018.93
2018-08-17T09:34:23.491Z,1018.93
2018-08-17T09:35:23.314Z,1018.98
2018-08-17T09:36:24.483Z,1018.91
2018-08-17T09:37:24.856Z,1018.87
2018-08-17T09:38:24.344Z,1018.90
2018-08-17T09:39:23.366Z,1018.84
2018-08-17T09:40:45.434Z,1018.79
2018-08-17T09:41:47.700Z,1018.80
2018-08-17T09:42:45.064Z,1018.72
2018-08-17T09:44:29.278Z,1018.74
2018-08-17T09:45:29.973Z,1018.67
2018-08-17T09:46:30.362Z,1018.68
2018-08-17T09:47:29.826Z,1018.65
2018-08-17T09:48:29.737Z,1018.63
2018-08-17T09:49:30.093Z,1018.60
2018-08-17T09:50:30.130Z,1018.60
2018-08-17T09:51:52.960Z,1018.66
2018-08-17T09:52:53.121Z,1018.65
2018-08-17T09:53:52.855Z,1018.68
2018-08-17T09:54:53.135Z,1018.66
2018-08-17T09:55:53.319Z,1018.65
2018-08-17T09:56:52.292Z,1018.69
2018-08-17T09:57:52.432Z,1018.68
2018-08-17T09:58:52.542Z,1018.67
2018-08-17T09:59:52.735Z,1018.71
2018-08-17T10:00:52.838Z,1018.72
2018-08-17T10:01:52.585Z,1018.75
2018-08-17T10:02:52.453Z,1018.78
2018-08-17T10:03:52.225Z,1018.80
2018-08-17T10:04:53.114Z,1018.76
2018-08-17T10:05:52.270Z,1018.78
2018-08-17T10:06:52.712Z,1018.77
2018-08-17T10:07:53.904Z,1018.77
2018-08-17T10:08:53.395Z,1018.75
2018-08-17T10:09:52.551Z,1018.78
2018-08-17T10:10:53.153Z,1018.77
2018-08-17T10:11:52.447Z,1018.79
2018-08-17T10:12:59.043Z,1018.80
2018-08-17T10:13:53.434Z,1018.82
2018-08-17T10:14:52.091Z,1018.84
2018-08-17T10:15:53.175Z,1018.85
2018-08-17T10:16:53.289Z,1018.82
2018-08-17T10:17:52.285Z,1018.82
2018-08-17T10:18:52.229Z,1018.85
2018-08-17T10:20:17.847Z,1018.81
2018-08-17T10:21:17.962Z,1018.85
2018-08-17T10:22:18.318Z,1018.88
2018-08-17T10:23:18.210Z,1018.86
2018-08-17T10:24:40.038Z,1018.89
2018-08-17T10:25:40.064Z,1018.91
2018-08-17T10:26:39.966Z,1018.92
2018-08-17T10:28:01.550Z,1018.89
2018-08-17T10:29:48.409Z,1018.83
2018-08-17T10:30:49.319Z,1018.83
2018-08-17T10:31:49.142Z,1018.84
2018-08-17T10:32:49.443Z,1018.81
2018-08-17T10:33:49.241Z,1018.84
2018-08-17T10:34:51.745Z,1018.80
2018-08-17T10:35:51.602Z,1018.81
2018-08-17T10:36:49.172Z,1018.82
2018-08-17T10:37:49.021Z,1018.85
2018-08-17T10:38:49.385Z,1018.82
2018-08-17T10:39:49.553Z,1018.78
2018-08-17T10:40:50.176Z,1018.82
2018-08-17T10:41:56.386Z,1018.81
2018-08-17T10:42:49.699Z,1018.77
2018-08-17T10:43:49.901Z,1018.75
2018-08-17T10:44:49.137Z,1018.76
2018-08-17T10:45:49.118Z,1018.80
2018-08-17T10:46:49.901Z,1018.83
2018-08-17T10:47:51.242Z,1018.81
2018-08-17T10:49:10.481Z,1018.89
2018-08-17T10:49:49.090Z,1018.87
2018-08-17T10:50:49.015Z,1018.86
2018-08-17T10:52:32.894Z,1018.85
2018-08-17T10:53:54.850Z,1018.80
2018-08-17T10:55:18.960Z,1018.89
2018-08-17T10:56:19.764Z,1018.87
2018-08-17T10:57:19.782Z,1018.89
2018-08-17T10:58:19.654Z,1018.93
2018-08-17T10:59:19.852Z,1018.90
2018-08-17T11:00:19.789Z,1018.96
2018-08-17T11:01:19.729Z,1018.94
2018-08-17T11:02:19.788Z,1018.94
2018-08-17T11:03:19.539Z,1018.93
2018-08-17T11:04:19.857Z,1018.95
2018-08-17T11:05:19.873Z,1018.92
2018-08-17T11:06:19.669Z,1018.95
2018-08-17T11:07:19.926Z,1018.95
2018-08-17T11:08:19.978Z,1018.93
2018-08-17T11:09:20.695Z,1018.93
2018-08-17T11:10:19.618Z,1018.91
2018-08-17T11:11:19.869Z,1018.93
2018-08-17T11:12:41.388Z,1018.89
2018-08-17T11:14:04.594Z,1018.93
2018-08-17T11:15:05.647Z,1018.95
2018-08-17T11:16:06.126Z,1018.91
2018-08-17T11:17:05.279Z,1018.92
2018-08-17T11:18:06.053Z,1018.99
2018-08-17T11:19:04.549Z,1018.98
2018-08-17T11:20:05.401Z,1019.00
2018-08-17T11:21:05.629Z,1018.97
2018-08-17T11:22:05.742Z,1019.00
2018-08-17T11:23:04.818Z,1019.03
2018-08-17T11:24:04.642Z,1019.01
2018-08-17T11:25:04.474Z,1019.05
2018-08-17T11:26:05.169Z,1019.12
2018-08-17T11:27:04.965Z,1019.13
2018-08-17T11:28:05.046Z,1019.11
2018-08-17T11:29:26.221Z,1019.15
2018-08-17T11:30:27.148Z,1019.17
2018-08-17T11:31:27.832Z,1019.16
2018-08-17T11:32:26.873Z,1019.18
2018-08-17T11:33:26.680Z,1019.18
2018-08-17T11:34:26.511Z,1019.19
2018-08-17T11:35:26.283Z,1019.20
2018-08-17T11:36:27.382Z,1019.23
2018-08-17T11:37:27.255Z,1019.22
2018-08-17T11:38:27.703Z,1019.21
2018-08-17T11:39:26.559Z,1019.23
2018-08-17T11:40:26.393Z,1019.19
2018-08-17T11:41:27.449Z,1019.18
2018-08-17T11:42:27.249Z,1019.20
2018-08-17T11:43:47.976Z,1019.22
2018-08-17T11:44:48.774Z,1019.16
2018-08-17T11:46:32.132Z,1019.18
2018-08-17T11:47:31.971Z,1019.19
2018-08-17T11:48:32.924Z,1019.18
2018-08-17T11:49:32.800Z,1019.18
2018-08-17T11:50:32.689Z,1019.24
2018-08-17T11:51:35.480Z,1019.18
2018-08-17T11:52:33.173Z,1019.16
2018-08-17T11:54:16.187Z,1019.21
2018-08-17T11:55:16.318Z,1019.18
2018-08-17T11:56:16.709Z,1019.20
2018-08-17T11:57:16.956Z,1019.17
2018-08-17T11:58:16.141Z,1019.20
2018-08-17T11:59:16.784Z,1019.24
2018-08-17T12:00:17.120Z,1019.19
2018-08-17T12:01:16.070Z,1019.23
2018-08-17T12:02:16.221Z,1019.21
2018-08-17T12:03:16.161Z,1019.23
2018-08-17T12:04:38.046Z,1019.23
2018-08-17T12:05:38.792Z,1019.24
2018-08-17T12:06:38.893Z,1019.21
2018-08-17T12:07:39.699Z,1019.20
2018-08-17T12:08:38.569Z,1019.25
2018-08-17T12:10:00.301Z,1019.30
2018-08-17T12:11:01.937Z,1019.28
2018-08-17T12:12:23.637Z,1019.29
2018-08-17T12:13:45.555Z,1019.32
2018-08-17T12:14:45.830Z,1019.34
2018-08-17T12:15:45.936Z,1019.35
2018-08-17T12:16:46.322Z,1019.37
2018-08-17T12:17:46.073Z,1019.35
2018-08-17T12:18:46.620Z,1019.33
2018-08-17T12:19:45.997Z,1019.41
2018-08-17T12:20:47.598Z,1019.37
2018-08-17T12:21:45.401Z,1019.40
2018-08-17T12:22:47.779Z,1019.39
2018-08-17T12:23:47.150Z,1019.46
2018-08-17T12:24:49.462Z,1019.44
2018-08-17T12:25:45.865Z,1019.46
2018-08-17T12:26:46.975Z,1019.46
2018-08-17T12:27:46.125Z,1019.49
2018-08-17T12:28:48.554Z,1019.52
2018-08-17T12:29:46.396Z,1019.50
2018-08-17T12:30:46.755Z,1019.51
2018-08-17T12:32:07.935Z,1019.52
2018-08-17T12:33:08.001Z,1019.52
2018-08-17T12:34:09.043Z,1019.55
2018-08-17T12:35:07.983Z,1019.54
2018-08-17T12:36:08.470Z,1019.57
2018-08-17T12:37:07.556Z,1019.53
2018-08-17T12:38:07.576Z,1019.51
2018-08-17T12:39:07.462Z,1019.54
2018-08-17T12:40:07.702Z,1019.48
2018-08-17T12:41:09.076Z,1019.50
2018-08-17T12:42:08.203Z,1019.54
2018-08-17T12:43:07.925Z,1019.53
2018-08-17T12:44:08.217Z,1019.48
2018-08-17T12:45:08.861Z,1019.48
2018-08-17T12:46:07.746Z,1019.55
2018-08-17T12:47:09.186Z,1019.55
2018-08-17T12:48:08.966Z,1019.55
2018-08-17T12:49:07.680Z,1019.56
2018-08-17T12:50:08.024Z,1019.58